Philadelphia, Pennsylvania
Traffic Map
Current Weather Conditions
Philadelphia, Pennsylvania
Overcast
Overcast
38°
Feels Like: 30°
Wind Chill: 30° Ceiling: 1200
Heat Index: 38° Visibility: 10mi
Dew Point: 35° Wind: 14mph
Humidity: 89% Direction: 50° (NE)
Pressure: 29.59in Gusts: 22mph
Raw Report DataKPHL 232254Z 05012G19KT 10SM BKN012 BKN018 OVC030 03/02 A2959 RMK AO2 PK WND 05033/2212 RAE42 SLP019 P0009 T00330017
Traffic Incident Summary
Active as of:
Severity:
Category:
InformationThere was an issue retrieving the traffic information for this location. Please try a different location or try again shortly.
Advertisements
Track Severe Weather on mobile